createdAt,value
2022-10-10T00:01:16.420Z,11.45
2022-10-10T00:03:44.587Z,11.48
2022-10-10T00:06:12.738Z,11.30
2022-10-10T00:08:41.756Z,11.45
2022-10-10T00:11:09.907Z,11.18
2022-10-10T00:13:38.128Z,11.30
2022-10-10T00:16:07.700Z,11.40
2022-10-10T00:18:35.734Z,11.45
2022-10-10T00:21:03.971Z,11.20
2022-10-10T00:23:32.017Z,12.05
2022-10-10T00:26:00.077Z,11.45
2022-10-10T00:28:28.599Z,11.50
2022-10-10T00:30:56.768Z,11.15
2022-10-10T00:33:26.184Z,11.52
2022-10-10T00:35:54.299Z,11.75
2022-10-10T00:38:22.313Z,11.77
2022-10-10T00:40:51.584Z,10.77
2022-10-10T00:43:19.817Z,11.23
2022-10-10T00:45:48.323Z,12.38
2022-10-10T00:48:17.375Z,11.93
2022-10-10T00:50:49.343Z,11.48
2022-10-10T00:53:18.465Z,12.02
2022-10-10T00:55:46.506Z,11.63
2022-10-10T00:58:14.567Z,11.80
2022-10-10T01:00:42.663Z,11.13
2022-10-10T01:03:10.778Z,11.68
2022-10-10T01:05:38.852Z,11.80
2022-10-10T01:08:08.258Z,12.25
2022-10-10T01:10:40.521Z,11.65
2022-10-10T01:13:12.514Z,12.98
2022-10-10T01:15:47.559Z,11.85
2022-10-10T01:18:19.749Z,11.45
2022-10-10T01:21:09.936Z,11.63
2022-10-10T01:24:23.827Z,10.95
2022-10-10T01:27:19.877Z,11.73
2022-10-10T01:29:52.200Z,12.15
2022-10-10T01:32:24.129Z,11.73
2022-10-10T01:34:57.952Z,12.25
2022-10-10T01:37:29.915Z,11.65
2022-10-10T01:39:59.605Z,11.27
2022-10-10T01:42:31.086Z,11.82
2022-10-10T01:45:00.514Z,11.55
2022-10-10T01:47:28.558Z,11.60
2022-10-10T01:49:58.396Z,11.25
2022-10-10T01:52:34.397Z,11.85
2022-10-10T01:55:10.738Z,11.18
2022-10-10T01:57:41.782Z,11.82
2022-10-10T02:00:12.312Z,11.23
2022-10-10T02:02:48.165Z,11.52
2022-10-10T02:05:20.193Z,11.25
2022-10-10T02:07:50.059Z,11.52
2022-10-10T02:10:20.827Z,11.50
2022-10-10T02:12:49.285Z,11.40
2022-10-10T02:15:20.954Z,11.50
2022-10-10T02:17:49.418Z,11.77
2022-10-10T02:20:18.845Z,11.38
2022-10-10T02:22:47.418Z,11.75
2022-10-10T02:25:15.623Z,10.85
2022-10-10T02:27:45.809Z,11.55
2022-10-10T02:30:14.033Z,11.60
2022-10-10T02:32:44.600Z,11.00
2022-10-10T02:35:15.514Z,11.30
2022-10-10T02:37:43.576Z,11.68
2022-10-10T02:40:12.800Z,11.15
2022-10-10T02:42:40.837Z,10.82
2022-10-10T02:45:09.351Z,11.77
2022-10-10T02:47:37.378Z,11.32
2022-10-10T02:50:07.858Z,10.80
2022-10-10T02:52:35.975Z,11.60
2022-10-10T02:55:04.045Z,11.45
2022-10-10T02:57:32.106Z,11.10
2022-10-10T03:00:00.210Z,11.65
2022-10-10T03:02:28.260Z,11.65
2022-10-10T03:04:56.363Z,10.95
2022-10-10T03:07:25.971Z,11.15
2022-10-10T03:09:53.989Z,11.30
2022-10-10T03:12:22.049Z,10.85
2022-10-10T03:14:50.111Z,11.02
2022-10-10T03:17:18.227Z,10.30
2022-10-10T03:19:46.268Z,10.52
2022-10-10T03:22:14.276Z,10.13
2022-10-10T03:24:43.672Z,10.23
2022-10-10T03:27:11.712Z,10.45
2022-10-10T03:29:39.803Z,10.30
2022-10-10T03:32:10.843Z,10.05
2022-10-10T03:34:39.276Z,10.73
2022-10-10T03:37:07.357Z,9.98
2022-10-10T03:39:35.401Z,10.05
2022-10-10T03:42:05.155Z,9.93
2022-10-10T03:44:33.226Z,9.98
2022-10-10T03:47:01.274Z,9.68
2022-10-10T03:49:29.462Z,9.57
2022-10-10T03:51:57.515Z,9.77
2022-10-10T03:54:25.574Z,9.23
2022-10-10T03:56:53.729Z,9.75
2022-10-10T03:59:23.117Z,9.60
2022-10-10T04:01:51.210Z,9.18
2022-10-10T04:04:19.260Z,9.30
2022-10-10T04:06:47.313Z,9.40
2022-10-10T04:09:15.353Z,9.32
2022-10-10T04:11:43.418Z,9.63
2022-10-10T04:14:11.429Z,9.40
2022-10-10T04:16:40.824Z,8.95
2022-10-10T04:19:08.925Z,9.23
2022-10-10T04:21:37.013Z,9.25
2022-10-10T04:24:05.383Z,9.38
2022-10-10T04:26:33.424Z,9.40
2022-10-10T04:29:01.544Z,9.05
2022-10-10T04:31:29.776Z,9.40
2022-10-10T04:33:59.183Z,8.90
2022-10-10T04:36:27.245Z,9.10
2022-10-10T04:38:55.291Z,9.38
2022-10-10T04:41:23.342Z,9.38
2022-10-10T04:43:51.388Z,9.45
2022-10-10T04:46:19.453Z,9.18
2022-10-10T04:48:47.483Z,9.50
2022-10-10T04:51:17.049Z,9.68
2022-10-10T04:53:50.082Z,8.48
2022-10-10T04:56:18.606Z,9.38
2022-10-10T04:58:46.668Z,9.02
2022-10-10T05:01:14.753Z,9.02
2022-10-10T05:03:42.885Z,9.07
2022-10-10T05:06:10.915Z,9.20
2022-10-10T05:08:40.371Z,9.00
2022-10-10T05:11:08.439Z,9.25
2022-10-10T05:13:36.475Z,9.27
2022-10-10T05:16:04.527Z,8.55
2022-10-10T05:18:32.557Z,9.18
2022-10-10T05:21:03.648Z,11.20
2022-10-10T05:23:32.133Z,10.60
2022-10-10T05:26:01.581Z,11.20
2022-10-10T05:28:29.691Z,10.70
2022-10-10T05:30:57.759Z,12.48
2022-10-10T05:33:25.941Z,12.75
2022-10-10T05:35:54.052Z,12.75
2022-10-10T05:38:22.113Z,14.07
2022-10-10T05:40:50.127Z,12.98
2022-10-10T05:43:19.515Z,13.32
2022-10-10T05:45:47.584Z,12.77
2022-10-10T05:48:15.616Z,14.18
2022-10-10T05:50:48.758Z,13.13
2022-10-10T05:53:16.910Z,13.93
2022-10-10T05:55:45.120Z,13.45
2022-10-10T05:58:14.196Z,13.23
2022-10-10T06:00:43.831Z,13.63
2022-10-10T06:03:14.030Z,12.45
2022-10-10T06:05:42.227Z,13.68
2022-10-10T06:08:12.107Z,12.38
2022-10-10T06:10:41.558Z,12.82
2022-10-10T06:13:09.791Z,13.73
2022-10-10T06:15:37.976Z,13.40
2022-10-10T06:18:07.828Z,12.40
2022-10-10T06:20:36.551Z,12.65
2022-10-10T06:23:04.804Z,13.65
2022-10-10T06:25:41.942Z,12.43
2022-10-10T06:28:10.423Z,12.30
2022-10-10T06:30:41.479Z,11.57
2022-10-10T06:33:11.003Z,12.13
2022-10-10T06:35:42.495Z,11.70
2022-10-10T06:38:10.702Z,11.80
2022-10-10T06:40:39.253Z,11.70
2022-10-10T06:43:11.447Z,11.63
2022-10-10T06:45:40.103Z,11.70
2022-10-10T06:48:08.414Z,10.93
2022-10-10T06:50:37.925Z,11.98
2022-10-10T06:53:05.993Z,11.43
2022-10-10T06:55:34.028Z,11.55
2022-10-10T06:58:02.122Z,10.82
2022-10-10T07:00:30.312Z,10.68
2022-10-10T07:02:58.362Z,10.63
2022-10-10T07:05:26.435Z,10.57
2022-10-10T07:07:55.876Z,11.15
2022-10-10T07:10:24.066Z,10.10
2022-10-10T07:12:52.536Z,10.75
2022-10-10T07:15:20.664Z,10.57
2022-10-10T07:17:54.112Z,10.90
2022-10-10T07:20:22.551Z,10.70
2022-10-10T07:22:51.077Z,10.35
2022-10-10T07:25:20.668Z,10.40
2022-10-10T07:27:49.347Z,9.80
2022-10-10T07:30:17.605Z,10.18
2022-10-10T07:32:45.667Z,10.43
2022-10-10T07:35:13.757Z,10.18
2022-10-10T07:37:41.872Z,10.15
2022-10-10T07:40:10.762Z,9.93
2022-10-10T07:42:40.305Z,9.70
2022-10-10T07:45:10.379Z,10.32
2022-10-10T07:47:38.444Z,10.55
2022-10-10T07:50:07.731Z,10.88
2022-10-10T07:52:35.853Z,10.50
2022-10-10T07:55:05.478Z,10.52
2022-10-10T07:57:35.098Z,10.50
2022-10-10T08:00:05.828Z,10.85
2022-10-10T08:02:39.794Z,9.68
2022-10-10T08:05:08.498Z,9.85
2022-10-10T08:07:36.579Z,10.50
2022-10-10T08:10:04.887Z,10.80
2022-10-10T08:12:33.058Z,13.23
2022-10-10T08:15:01.280Z,12.70
2022-10-10T08:17:30.767Z,14.07
2022-10-10T08:19:58.839Z,14.10
2022-10-10T08:22:26.914Z,13.77
2022-10-10T08:24:55.013Z,14.18
2022-10-10T08:27:23.079Z,13.18
2022-10-10T08:29:51.527Z,10.82
2022-10-10T08:32:19.761Z,11.00
2022-10-10T08:34:49.200Z,11.35
2022-10-10T08:37:17.255Z,11.65
2022-10-10T08:39:45.328Z,11.13
2022-10-10T08:42:16.669Z,12.00
2022-10-10T08:44:46.677Z,11.82
2022-10-10T08:47:16.344Z,10.70
2022-10-10T08:49:45.964Z,11.40
2022-10-10T08:52:19.747Z,11.43
2022-10-10T08:54:47.902Z,10.95
2022-10-10T08:57:23.739Z,11.48
2022-10-10T09:02:43.628Z,11.57
2022-10-10T09:05:19.678Z,11.82
2022-10-10T09:07:59.088Z,11.50
2022-10-10T09:10:30.361Z,10.95
2022-10-10T09:13:01.840Z,11.27
2022-10-10T09:15:32.112Z,11.30
2022-10-10T09:18:03.321Z,11.38
2022-10-10T09:20:38.077Z,11.05
2022-10-10T09:23:09.958Z,10.50
2022-10-10T09:25:40.147Z,11.52
2022-10-10T09:28:11.835Z,11.18
2022-10-10T09:30:44.122Z,10.93
2022-10-10T09:33:28.001Z,10.93
2022-10-10T09:35:56.157Z,11.10
2022-10-10T09:38:33.263Z,10.45
2022-10-10T09:41:02.847Z,10.23
2022-10-10T09:43:33.144Z,10.20
2022-10-10T09:46:01.247Z,10.02
2022-10-10T09:48:30.853Z,10.13
2022-10-10T09:50:59.031Z,10.32
2022-10-10T09:53:28.801Z,10.27
2022-10-10T09:55:56.889Z,10.02
2022-10-10T09:58:28.946Z,10.30
2022-10-10T10:00:57.320Z,10.05
2022-10-10T10:03:25.557Z,9.90
2022-10-10T10:05:57.664Z,9.93
2022-10-10T10:08:28.828Z,9.73
2022-10-10T10:11:00.181Z,9.35
2022-10-10T10:13:30.693Z,9.13
2022-10-10T10:16:02.175Z,9.23
2022-10-10T10:18:30.285Z,9.30
2022-10-10T10:21:25.778Z,9.00
2022-10-10T10:23:57.745Z,9.57
2022-10-10T10:26:31.030Z,8.82
2022-10-10T10:28:59.497Z,8.60
2022-10-10T10:31:55.783Z,8.77
2022-10-10T10:34:49.507Z,9.50
2022-10-10T10:37:22.254Z,8.40
2022-10-10T10:40:04.825Z,9.25
2022-10-10T10:42:40.308Z,8.65
2022-10-10T10:45:11.009Z,8.65
2022-10-10T10:47:43.351Z,8.35
2022-10-10T10:50:24.614Z,8.52
2022-10-10T10:52:58.040Z,8.32
2022-10-10T10:55:33.144Z,8.50
2022-10-10T11:01:28.617Z,8.07
2022-10-10T11:05:16.594Z,8.43
2022-10-10T11:07:17.897Z,8.13
2022-10-10T11:09:50.429Z,7.85
2022-10-10T11:12:34.759Z,7.50
2022-10-10T11:15:04.433Z,7.85
2022-10-10T11:17:37.684Z,7.53
2022-10-10T11:20:09.728Z,7.22
2022-10-10T11:22:39.526Z,6.82
2022-10-10T11:25:09.502Z,7.40
2022-10-10T11:27:41.076Z,6.88
2022-10-10T11:30:14.255Z,6.60
2022-10-10T11:32:47.774Z,6.32
2022-10-10T11:35:19.886Z,6.78
2022-10-10T11:37:50.988Z,5.80
2022-10-10T11:40:31.394Z,6.25
2022-10-10T11:43:02.733Z,5.95
2022-10-10T11:45:32.352Z,5.90
2022-10-10T11:48:04.136Z,5.82
2022-10-10T11:50:33.075Z,5.60
2022-10-10T11:53:03.067Z,5.55
2022-10-10T11:55:37.565Z,5.75
2022-10-10T11:58:24.664Z,5.28
2022-10-10T12:00:54.110Z,5.53
2022-10-10T12:03:22.148Z,4.93
2022-10-10T12:05:51.403Z,5.15
2022-10-10T12:08:20.725Z,5.18
2022-10-10T12:10:50.695Z,5.03
2022-10-10T12:13:26.165Z,5.05
2022-10-10T12:15:54.636Z,5.03
2022-10-10T12:18:27.760Z,4.68
2022-10-10T12:21:06.436Z,4.68
2022-10-10T12:23:34.540Z,5.05
2022-10-10T12:26:02.894Z,4.88
2022-10-10T12:28:37.222Z,4.82
2022-10-10T12:31:34.625Z,4.60
2022-10-10T12:34:10.421Z,4.68
2022-10-10T12:37:13.040Z,4.60
2022-10-10T12:39:45.385Z,4.10
2022-10-10T12:42:32.915Z,4.45
2022-10-10T12:45:02.328Z,4.20
2022-10-10T12:48:03.947Z,4.00
2022-10-10T12:50:32.528Z,4.05
2022-10-10T12:53:01.343Z,4.13
2022-10-10T12:55:32.233Z,4.30
2022-10-10T12:58:01.830Z,3.88
2022-10-10T13:00:38.136Z,3.80
2022-10-10T13:03:11.046Z,4.20
2022-10-10T13:05:40.926Z,3.85
2022-10-10T13:08:13.217Z,3.80
2022-10-10T13:10:41.258Z,3.92
2022-10-10T13:13:18.545Z,3.90
2022-10-10T13:15:53.794Z,3.80
2022-10-10T13:18:34.663Z,3.88
2022-10-10T13:21:03.268Z,4.00
2022-10-10T13:23:31.592Z,3.83
2022-10-10T13:26:00.105Z,3.75
2022-10-10T13:28:28.221Z,3.75
2022-10-10T13:30:57.704Z,3.50
2022-10-10T13:33:33.154Z,3.75
2022-10-10T13:36:06.268Z,3.40
2022-10-10T13:38:34.370Z,3.33
2022-10-10T13:41:03.943Z,3.65
2022-10-10T13:43:32.428Z,3.70
2022-10-10T13:46:03.449Z,3.33
2022-10-10T13:48:40.907Z,3.67
2022-10-10T13:51:10.627Z,3.70
2022-10-10T13:53:47.425Z,3.50
2022-10-10T13:56:17.581Z,3.60
2022-10-10T13:58:48.038Z,3.63
2022-10-10T14:01:32.216Z,3.72
2022-10-10T14:04:03.214Z,3.33
2022-10-10T14:06:31.455Z,3.50
2022-10-10T14:09:06.361Z,3.40
2022-10-10T14:11:34.936Z,3.15
2022-10-10T14:14:05.837Z,3.28
2022-10-10T14:16:35.337Z,3.38
2022-10-10T14:19:03.397Z,3.33
2022-10-10T14:21:31.460Z,3.28
2022-10-10T14:23:59.498Z,3.30
2022-10-10T14:26:27.564Z,3.17
2022-10-10T14:28:55.679Z,3.40
2022-10-10T14:31:23.998Z,3.00
2022-10-10T14:33:53.908Z,3.50
2022-10-10T14:36:22.013Z,3.28
2022-10-10T14:38:50.101Z,3.20
2022-10-10T14:41:18.147Z,3.10
2022-10-10T14:43:46.224Z,3.33
2022-10-10T14:46:17.949Z,3.10
2022-10-10T14:48:45.989Z,3.00
2022-10-10T14:51:33.933Z,3.10
2022-10-10T14:54:10.194Z,2.97
2022-10-10T14:57:08.944Z,3.10
2022-10-10T14:59:48.367Z,2.90
2022-10-10T15:02:19.660Z,3.20
2022-10-10T15:04:47.736Z,3.22
2022-10-10T15:07:17.353Z,3.40
2022-10-10T15:10:09.585Z,3.20
2022-10-10T15:12:33.594Z,2.97
2022-10-10T15:15:01.712Z,3.15
2022-10-10T15:17:31.060Z,3.10
2022-10-10T15:19:59.147Z,3.00
2022-10-10T15:22:29.560Z,3.25
2022-10-10T15:24:57.690Z,2.85
2022-10-10T15:27:27.921Z,2.80
2022-10-10T15:29:55.985Z,3.10
2022-10-10T15:32:24.043Z,2.70
2022-10-10T15:34:52.267Z,3.03
2022-10-10T15:37:20.310Z,3.00
2022-10-10T15:39:49.702Z,2.88
2022-10-10T15:42:22.777Z,3.40
2022-10-10T15:44:51.671Z,3.10
2022-10-10T15:47:20.174Z,2.92
2022-10-10T15:49:48.325Z,3.00
2022-10-10T15:52:16.379Z,2.80
2022-10-10T15:54:48.447Z,2.85
2022-10-10T15:57:19.057Z,2.88
2022-10-10T15:59:47.724Z,2.70
2022-10-10T16:02:15.749Z,2.92
2022-10-10T16:04:43.847Z,2.63
2022-10-10T16:07:26.860Z,2.63
2022-10-10T16:09:57.919Z,2.80
2022-10-10T16:12:27.418Z,2.65
2022-10-10T16:14:55.515Z,2.63
2022-10-10T16:17:24.002Z,2.90
2022-10-10T16:19:52.386Z,2.80
2022-10-10T16:22:20.675Z,2.60
2022-10-10T16:25:21.373Z,2.83
2022-10-10T16:27:38.615Z,2.92
2022-10-10T16:30:07.737Z,2.70
2022-10-10T16:32:40.816Z,2.70
2022-10-10T16:35:10.840Z,2.40
2022-10-10T16:37:39.231Z,2.80
2022-10-10T16:40:08.471Z,2.60
2022-10-10T16:42:37.984Z,2.88
2022-10-10T16:45:06.912Z,2.78
2022-10-10T16:47:35.245Z,2.72
2022-10-10T16:50:03.335Z,2.63
2022-10-10T16:52:33.043Z,2.55
2022-10-10T16:55:01.138Z,2.78
2022-10-10T16:57:29.282Z,2.55
2022-10-10T16:59:58.687Z,2.60
2022-10-10T17:02:26.823Z,2.75
2022-10-10T17:04:55.269Z,2.90
2022-10-10T17:07:23.383Z,2.63
2022-10-10T17:09:51.465Z,2.90
2022-10-10T17:12:19.620Z,2.53
2022-10-10T17:14:47.686Z,2.70
2022-10-10T17:17:19.365Z,2.65
2022-10-10T17:19:49.173Z,2.70
2022-10-10T17:22:17.353Z,2.63
2022-10-10T17:24:45.492Z,2.50
2022-10-10T17:27:13.947Z,2.88
2022-10-10T17:29:41.986Z,3.35
2022-10-10T17:32:10.062Z,2.60
2022-10-10T17:34:39.565Z,2.78
2022-10-10T17:37:07.606Z,2.80
2022-10-10T17:39:35.687Z,2.42
2022-10-10T17:42:04.623Z,2.78
2022-10-10T17:44:39.083Z,2.60
2022-10-10T17:47:13.610Z,2.50
2022-10-10T17:49:46.784Z,2.90
2022-10-10T17:52:21.096Z,2.78
2022-10-10T17:54:50.499Z,2.40
2022-10-10T17:57:18.853Z,2.78
2022-10-10T17:59:46.973Z,2.60
2022-10-10T18:02:16.473Z,2.65
2022-10-10T18:04:45.965Z,2.22
2022-10-10T18:07:14.236Z,2.72
2022-10-10T18:09:42.410Z,2.70
2022-10-10T18:12:10.447Z,2.53
2022-10-10T18:14:38.710Z,2.60
2022-10-10T18:17:06.767Z,2.60
2022-10-10T18:19:35.086Z,2.60
2022-10-10T18:22:04.618Z,2.53
2022-10-10T18:24:32.768Z,2.47
2022-10-10T18:27:00.903Z,2.60
2022-10-10T18:29:29.048Z,2.55
2022-10-10T18:31:57.521Z,2.88
2022-10-10T18:34:25.701Z,2.58
2022-10-10T18:36:53.904Z,2.90
2022-10-10T18:39:23.490Z,2.80
2022-10-10T18:41:52.010Z,2.78
2022-10-10T18:44:20.495Z,2.80
2022-10-10T18:46:49.544Z,3.00
2022-10-10T18:49:17.754Z,2.60
2022-10-10T18:51:46.359Z,2.88
2022-10-10T18:54:15.445Z,2.28
2022-10-10T18:56:45.031Z,2.55
2022-10-10T18:59:14.951Z,2.80
2022-10-10T19:01:45.525Z,2.40
2022-10-10T19:04:14.999Z,2.90
2022-10-10T19:06:43.254Z,2.60
2022-10-10T19:09:12.892Z,2.70
2022-10-10T19:11:42.035Z,2.65
2022-10-10T19:14:12.504Z,2.70
2022-10-10T19:16:40.639Z,2.50
2022-10-10T19:19:08.698Z,2.72
2022-10-10T19:21:37.845Z,2.70
2022-10-10T19:24:06.971Z,2.83
2022-10-10T19:26:35.747Z,2.80
2022-10-10T19:29:06.821Z,2.70
2022-10-10T19:31:36.800Z,2.70
2022-10-10T19:34:05.276Z,2.75
2022-10-10T19:36:35.061Z,3.00
2022-10-10T19:39:04.335Z,3.05
2022-10-10T19:41:32.396Z,2.67
2022-10-10T19:44:04.710Z,2.90
2022-10-10T19:46:36.737Z,3.05
2022-10-10T19:49:06.519Z,2.90
2022-10-10T19:51:34.587Z,3.00
2022-10-10T19:54:02.692Z,3.20
2022-10-10T19:56:30.828Z,3.10
2022-10-10T19:58:59.820Z,3.03
2022-10-10T20:01:29.847Z,2.88
2022-10-10T20:03:58.407Z,2.90
2022-10-10T20:06:27.900Z,3.15
2022-10-10T20:08:55.963Z,3.95
2022-10-10T20:11:26.224Z,2.70
2022-10-10T20:13:55.482Z,3.05
2022-10-10T20:16:23.933Z,2.88
2022-10-10T20:18:52.055Z,2.92
2022-10-10T20:21:22.052Z,3.15
2022-10-10T20:23:51.514Z,3.00
2022-10-10T20:26:20.536Z,2.85
2022-10-10T20:28:49.180Z,3.10
2022-10-10T20:31:20.058Z,3.10
2022-10-10T20:33:48.418Z,3.03
2022-10-10T20:36:16.580Z,2.78
2022-10-10T20:38:44.642Z,3.00
2022-10-10T20:41:14.217Z,2.90
2022-10-10T20:43:42.285Z,3.00
2022-10-10T20:46:11.269Z,2.92
2022-10-10T20:48:39.397Z,2.80
2022-10-10T20:51:08.446Z,2.75
2022-10-10T20:53:36.530Z,2.85
2022-10-10T20:56:06.177Z,2.97
2022-10-10T20:58:37.221Z,3.00
2022-10-10T21:01:07.051Z,3.20
2022-10-10T21:03:35.164Z,3.40
2022-10-10T21:06:07.722Z,3.00
2022-10-10T21:08:36.050Z,3.33
2022-10-10T21:11:06.321Z,3.00
2022-10-10T21:13:36.139Z,3.10
2022-10-10T21:16:06.649Z,2.70
2022-10-10T21:18:35.009Z,2.97
2022-10-10T21:21:03.267Z,3.03
2022-10-10T21:23:33.744Z,3.17
2022-10-10T21:26:05.319Z,3.10
2022-10-10T21:28:33.681Z,2.90
2022-10-10T21:31:03.214Z,3.30
2022-10-10T21:33:31.345Z,2.95
2022-10-10T21:35:59.546Z,3.05
2022-10-10T21:38:27.606Z,3.13
2022-10-10T21:40:55.674Z,3.22
2022-10-10T21:43:23.703Z,3.55
2022-10-10T21:45:51.766Z,3.22
2022-10-10T21:48:21.233Z,3.20
2022-10-10T21:50:49.297Z,3.45
2022-10-10T21:53:17.425Z,3.20
2022-10-10T21:55:45.471Z,3.10
2022-10-10T21:58:13.498Z,2.97
2022-10-10T22:00:41.624Z,3.17
2022-10-10T22:03:09.821Z,3.17
2022-10-10T22:05:40.732Z,3.00
2022-10-10T22:08:08.939Z,3.05
2022-10-10T22:10:37.069Z,3.05
2022-10-10T22:13:05.239Z,2.95
2022-10-10T22:15:33.304Z,3.10
2022-10-10T22:18:01.508Z,2.70
2022-10-10T22:20:29.587Z,3.10
2022-10-10T22:22:58.971Z,2.95
2022-10-10T22:25:27.131Z,2.95
2022-10-10T22:27:57.257Z,2.88
2022-10-10T22:30:25.517Z,3.00
2022-10-10T22:32:53.554Z,2.78
2022-10-10T22:35:21.566Z,3.30
2022-10-10T22:37:49.599Z,3.03
2022-10-10T22:40:19.175Z,3.10
2022-10-10T22:42:47.201Z,2.75
2022-10-10T22:45:15.411Z,3.00
2022-10-10T22:47:43.421Z,3.25
2022-10-10T22:50:12.465Z,2.90
2022-10-10T22:52:40.558Z,2.92
2022-10-10T22:55:10.246Z,3.30
2022-10-10T22:57:41.677Z,2.92
2022-10-10T23:00:11.224Z,2.67
2022-10-10T23:02:39.251Z,2.90
2022-10-10T23:05:08.490Z,3.38
2022-10-10T23:07:36.522Z,2.83
2022-10-10T23:10:05.145Z,3.50
2022-10-10T23:12:33.164Z,3.25
2022-10-10T23:15:02.652Z,3.00
2022-10-10T23:17:30.741Z,3.20
2022-10-10T23:19:58.774Z,2.95
2022-10-10T23:22:26.879Z,3.15
2022-10-10T23:24:54.932Z,3.03
2022-10-10T23:27:22.959Z,3.30
2022-10-10T23:29:51.027Z,3.17
2022-10-10T23:32:20.434Z,3.00
2022-10-10T23:34:48.465Z,3.45
2022-10-10T23:37:16.531Z,3.10
2022-10-10T23:39:44.617Z,3.25
2022-10-10T23:42:12.712Z,3.30
2022-10-10T23:44:40.753Z,3.50
2022-10-10T23:47:08.802Z,3.40
2022-10-10T23:49:38.191Z,3.20
2022-10-10T23:52:06.409Z,3.20
2022-10-10T23:54:34.500Z,3.20
2022-10-10T23:57:02.568Z,3.13
2022-10-10T23:59:30.756Z,3.33
